Flight Track Log - Related Links

Times and Time Zones

All times are in EDT time to prevent confusion due to time zone crossing. See the SAS4416 flight status page for this flight to view local times or setup timezone preferences in your user account.

Time Position Orientation Groundspeed Altitude Reporting Facility
EDT Latitude Longitude Course Direction KTS MPH feet Rate Location/Type
Thu 05:59:06 AM 60.1460 10.9730 247° West 203 234 4,500  Level FlightAware ADS-B
Thu 05:59:21 AM 60.1430 10.9410 259° West 239 275 4,900 1,800 Climbing FlightAware ADS-B
Thu 05:59:46 AM 60.1480 10.8810 280° West 270 311 5,700 2,400 Climbing FlightAware ADS-B
Thu 06:00:16 AM 60.1620 10.8220 296° West 283 326 7,100 3,150 Climbing FlightAware ADS-B
Thu 06:00:26 AM 60.1770 10.8010 325° Northwest 290 334 7,800 3,400 Climbing FlightAware ADS-B
Thu 06:00:46 AM 60.2030 10.7910 349° North 297 342 8,800 3,000 Climbing FlightAware ADS-B
Thu 06:01:16 AM 60.2410 10.8090 13° North 305 351 10,300 2,314 Climbing FlightAware ADS-B
Thu 06:01:56 AM 60.2850 10.8960 44° Northeast 339 390 11,500 2,080 Climbing FlightAware ADS-B
Thu 06:02:31 AM 60.3250 10.9760 45° Northeast 347 399 12,900 2,400 Climbing FlightAware ADS-B
Thu 06:03:16 AM 60.3730 11.0740 45° Northeast 353 406 14,700 2,188 Climbing FlightAware ADS-B
Thu 06:03:56 AM 60.4180 11.1680 46° Northeast 370 426 16,000 2,137 Climbing FlightAware ADS-B
Thu 06:04:29 AM 60.4710 11.2410 34° Northeast 387 445 17,300 2,400 Climbing FlightAware ADS-B
Thu 06:05:36 AM 60.5840 11.3230 20° North 401 461 20,000 2,304 Climbing FlightAware ADS-B
Thu 06:06:21 AM 60.6670 11.3710 16° North 420 483 21,600 2,225 Climbing FlightAware ADS-B
Thu 06:07:05 AM 60.7560 11.3850 North 435 501 23,300 2,357 Climbing FlightAware ADS-B
Thu 06:07:45 AM 60.8360 11.3970 North 442 509 24,900 2,188 Climbing FlightAware ADS-B
Thu 06:08:30 AM 60.9170 11.4090 North 451 519 26,400 2,118 Climbing FlightAware ADS-B
Thu 06:09:10 AM 61.0150 11.4240 North 464 534 27,900 2,049 Climbing FlightAware ADS-B
Thu 06:09:52 AM 61.1050 11.4380 North 473 544 29,200 2,000 Climbing FlightAware ADS-B
Thu 06:10:34 AM 61.1970 11.4510 North 475 547 30,700 2,023 Climbing FlightAware ADS-B
Thu 06:11:18 AM 61.2910 11.4660 North 478 550 32,100 1,756 Climbing FlightAware ADS-B
Thu 06:11:56 AM 61.3720 11.4780 North 484 557 33,100 1,683 Climbing FlightAware ADS-B
Thu 06:12:40 AM 61.4740 11.4940 North 484 557 34,400 1,643 Climbing FlightAware ADS-B
Thu 06:13:20 AM 61.5650 11.5080 North 488 562 35,400 1,500 Climbing FlightAware ADS-B
Thu 06:14:00 AM 61.6530 11.5220 North 487 560 36,400 1,465 Climbing FlightAware ADS-B
Thu 06:14:46 AM 61.7570 11.5390 North 485 558 37,500 1,395 Climbing FlightAware ADS-B
Thu 06:15:26 AM 61.8450 11.5530 North 481 554 38,400 1,071 Climbing FlightAware ADS-B
Thu 06:16:10 AM 61.9420 11.5690 North 474 545 39,000 429 Climbing FlightAware ADS-B
Thu 06:16:50 AM 62.0280 11.5830 North 474 545 39,000  Level FlightAware ADS-B
Thu 06:17:32 AM 62.1200 11.5970 North 475 547 39,000  Level FlightAware ADS-B
Thu 06:18:16 AM 62.2160 11.6140 North 475 547 39,000  Level FlightAware ADS-B
Thu 06:19:00 AM 62.3120 11.6300 North 476 548 39,000  Level FlightAware ADS-B
Thu 06:19:40 AM 62.3990 11.6440 North 476 548 39,000  Level FlightAware ADS-B
Thu 06:20:00 AM 62.4430 11.6510 North 476 548 39,000  Level FlightAware ADS-B
Thu 06:21:23 AM 62.6240 11.6800 North 467 537 39,000  Level FlightAware ADS-B
Thu 06:22:08 AM 62.7210 11.6960 North 467 537 39,000  Level FlightAware ADS-B
Thu 06:22:49 AM 62.8110 11.7110 North 467 537 39,000  Level FlightAware ADS-B
Thu 06:23:33 AM 62.9070 11.7280 North 465 535 39,000  Level FlightAware ADS-B
Thu 06:24:14 AM 62.9950 11.7430 North 465 535 39,000  Level FlightAware ADS-B
Thu 06:24:54 AM 63.0850 11.7590 North 471 542 39,000  Level FlightAware ADS-B
Thu 06:25:31 AM 63.1620 11.7720 North 471 542 39,000  Level FlightAware ADS-B
Thu 06:26:02 AM 63.1990 11.7790 North 471 542 39,000  Level FlightAware ADS-B
Thu 06:26:48 AM 63.3310 11.8050 North 472 543 39,000  Level FlightAware ADS-B
Thu 06:27:33 AM 63.4240 11.8660 16° North 475 547 39,000  Level FlightAware ADS-B
Thu 06:28:12 AM 63.5060 11.9310 19° North 475 547 39,000  Level FlightAware ADS-B
Thu 06:28:53 AM 63.5890 11.9990 20° North 467 537 39,000  Level FlightAware ADS-B
Thu 06:29:36 AM 63.6790 12.0720 20° North 466 536 39,000  Level FlightAware ADS-B
Thu 06:30:13 AM 63.7540 12.1340 20° North 464 534 39,000  Level FlightAware ADS-B
Thu 06:30:59 AM 63.8470 12.2130 21° North 471 542 39,000  Level FlightAware ADS-B
Thu 06:31:45 AM 63.9410 12.2900 20° North 471 542 39,000  Level FlightAware ADS-B
Thu 06:32:21 AM 64.0140 12.3530 21° North 471 542 39,000  Level FlightAware ADS-B
Thu 06:33:07 AM 64.1090 12.4320 20° North 471 542 39,000  Level FlightAware ADS-B
Thu 06:33:47 AM 64.1900 12.5020 21° North 472 543 39,000  Level FlightAware ADS-B
Thu 06:34:23 AM 64.2640 12.5640 20° North 471 542 39,000  Level FlightAware ADS-B
Thu 06:35:15 AM 64.3700 12.6570 21° North 471 542 39,000  Level FlightAware ADS-B
Thu 06:35:55 AM 64.4510 12.7270 20° North 470 541 39,000  Level FlightAware ADS-B
Thu 06:36:35 AM 64.5310 12.7970 21° North 470 541 39,000  Level FlightAware ADS-B
Thu 06:37:19 AM 64.6200 12.8770 21° North 469 540 39,000  Level FlightAware ADS-B
Thu 06:38:01 AM 64.7060 12.9530 21° North 469 540 39,000  Level FlightAware ADS-B
Thu 06:38:45 AM 64.7930 13.0300 21° North 469 540 39,000  Level FlightAware ADS-B
Thu 06:39:25 AM 64.8760 13.1040 21° North 469 540 39,000  Level FlightAware ADS-B
Thu 06:40:02 AM 64.9470 13.1690 21° North 468 539 39,000  Level FlightAware ADS-B
Thu 06:41:05 AM 65.0780 13.2880 21° North 467 537 39,000  Level FlightAware ADS-B
Thu 06:41:42 AM 65.1480 13.3530 21° North 467 537 39,000  Level FlightAware ADS-B
Thu 06:42:27 AM 65.2390 13.4370 21° North 467 537 39,000  Level FlightAware ADS-B
Thu 06:43:07 AM 65.3170 13.5100 21° North 467 537 39,000  Level FlightAware ADS-B
Thu 06:43:52 AM 65.4100 13.5970 21° North 465 535 39,000  Level FlightAware ADS-B
Thu 06:44:32 AM 65.4920 13.6740 21° North 465 535 39,000  Level FlightAware ADS-B
Thu 06:45:12 AM 65.5700 13.7490 22° Northeast 463 533 39,000  Level FlightAware ADS-B
Thu 06:45:56 AM 65.6510 13.8270 22° Northeast 463 533 39,000  Level FlightAware ADS-B
Thu 06:46:36 AM 65.7350 13.9070 21° North 462 532 39,000  Level FlightAware ADS-B
Thu 06:47:20 AM 65.8220 13.9970 23° Northeast 462 532 39,000  Level FlightAware ADS-B
Thu 06:48:04 AM 65.9090 14.0930 24° Northeast 461 531 39,000  Level FlightAware ADS-B
Thu 06:48:44 AM 65.9870 14.1770 24° Northeast 461 531 39,000  Level FlightAware ADS-B
Thu 06:49:26 AM 66.0680 14.2670 24° Northeast 460 529 39,000  Level FlightAware ADS-B
Thu 06:50:10 AM 66.1520 14.3610 24° Northeast 458 527 39,000  Level FlightAware ADS-B
Thu 06:50:52 AM 66.2340 14.4530 24° Northeast 458 527 39,000  Level FlightAware ADS-B
Thu 06:51:32 AM 66.3110 14.5400 24° Northeast 457 526 39,000  Level FlightAware ADS-B
Thu 06:52:14 AM 66.3910 14.6300 24° Northeast 456 525 39,000  Level FlightAware ADS-B
Thu 06:52:58 AM 66.4750 14.7270 25° Northeast 455 524 39,000  Level FlightAware ADS-B
Thu 06:53:38 AM 66.5500 14.8130 25° Northeast 448 516 39,000  Level FlightAware ADS-B
Thu 06:54:19 AM 66.6270 14.9020 25° Northeast 448 516 39,000  Level FlightAware ADS-B
Thu 06:54:58 AM 66.7030 14.9910 25° Northeast 458 527 39,000  Level FlightAware ADS-B
Thu 06:56:19 AM 66.7910 15.0950 25° Northeast 461 531 39,000  Level FlightAware ADS-B
Thu 06:56:57 AM 66.9310 15.2610 25° Northeast 461 531 39,000  Level FlightAware ADS-B
Thu 06:57:43 AM 67.0210 15.3690 25° Northeast 461 531 39,000  Level FlightAware ADS-B
Thu 06:58:23 AM 67.0980 15.4620 25° Northeast 462 532 39,000  Level FlightAware ADS-B
Thu 06:59:03 AM 67.1760 15.5540 25° Northeast 452 520 39,000  Level FlightAware ADS-B
Thu 06:59:48 AM 67.2670 15.6120 14° North 456 525 39,000  Level FlightAware ADS-B
Thu 07:00:31 AM 67.3490 15.6470 North 455 524 39,000  Level FlightAware ADS-B
Thu 07:01:09 AM 67.4330 15.6830 North 455 524 39,000  Level FlightAware ADS-B
Thu 07:01:54 AM 67.5260 15.7240 10° North 454 522 39,000  Level FlightAware ADS-B
Thu 07:02:34 AM 67.6080 15.7600 North 453 521 39,000  Level FlightAware ADS-B
Thu 07:03:19 AM 67.7020 15.8020 10° North 444 511 39,000  Level FlightAware ADS-B
Thu 07:03:54 AM 67.7710 15.8330 10° North 443 510 39,000  Level FlightAware ADS-B
Thu 07:04:40 AM 67.8670 15.8770 10° North 442 509 39,000  Level FlightAware ADS-B
Thu 07:05:50 AM 67.9490 15.9140 10° North 440 506 39,000  Level FlightAware ADS-B
Thu 07:06:34 AM 68.0990 15.9830 10° North 439 505 39,000 -148 Level FlightAware ADS-B
Thu 07:07:11 AM 68.1690 16.0150 10° North 443 510 38,800 -1,630 Descending FlightAware ADS-B
Thu 07:07:55 AM 68.2600 16.0580 10° North 443 510 36,800 -2,929 Descending FlightAware ADS-B
Thu 07:08:35 AM 68.3430 16.0960 10° North 441 507 34,700 -3,300 Descending FlightAware ADS-B
Thu 07:09:15 AM 68.4210 16.1750 20° North 456 525 32,400 -2,967 Descending FlightAware ADS-B
Thu 07:10:06 AM 68.5050 16.3490 37° Northeast 452 520 30,200 -2,523 Descending FlightAware ADS-B
Thu 07:10:43 AM 68.5620 16.4720 38° Northeast 437 503 28,700 -2,519 Descending FlightAware ADS-B
Thu 07:11:27 AM 68.6340 16.6280 38° Northeast 434 499 26,800 -2,509 Descending FlightAware ADS-B
Thu 07:12:33 AM 68.7370 16.8560 39° Northeast 419 482 24,100 -2,457 Descending FlightAware ADS-B
Thu 07:13:12 AM 68.7970 16.9880 38° Northeast 410 472 22,500 -2,354 Descending FlightAware ADS-B
Thu 07:13:52 AM 68.8550 17.1170 39° Northeast 400 460 21,000 -3,247 Descending FlightAware ADS-B
Thu 07:14:37 AM 68.9230 17.2570 36° Northeast 421 484 17,900 -3,429 Descending FlightAware ADS-B
Thu 07:15:23 AM 68.9910 17.4020 37° Northeast 406 467 15,800 -2,519 Descending FlightAware ADS-B
Thu 07:15:58 AM 69.0420 17.5110 37° Northeast 390 449 14,500 -2,278 Descending FlightAware ADS-B
Thu 07:16:42 AM 69.1050 17.6460 37° Northeast 371 427 12,800 -2,188 Descending FlightAware ADS-B
Thu 07:17:23 AM 69.1580 17.7600 37° Northeast 358 412 11,400 -1,852 Descending FlightAware ADS-B
Thu 07:18:03 AM 69.2090 17.8720 38° Northeast 338 389 10,300 -1,047 Descending FlightAware ADS-B
Thu 07:18:49 AM 69.2610 17.9850 38° Northeast 299 344 9,900 -857 Descending FlightAware ADS-B
Thu 07:19:13 AM 69.2880 18.0420 37° Northeast 295 339 9,300 -1,385 Descending FlightAware ADS-B
Thu 07:19:28 AM 69.3050 18.0750 34° Northeast 292 336 9,000 -1,333 Descending FlightAware ADS-B
Thu 07:19:58 AM 69.3380 18.1380 34° Northeast 288 331 8,300 -1,364 Descending FlightAware ADS-B
Thu 07:20:34 AM 69.3760 18.2120 34° Northeast 283 326 7,500 -1,457 Descending FlightAware ADS-B
Thu 07:21:08 AM 69.4140 18.2850 34° Northeast 280 322 6,600 -1,424 Descending FlightAware ADS-B
Thu 07:21:33 AM 69.4410 18.3360 34° Northeast 276 318 6,100 -1,440 Descending FlightAware ADS-B
Thu 07:21:58 AM 69.4670 18.3870 35° Northeast 278 320 5,400 -1,636 Descending FlightAware ADS-B
Thu 07:22:28 AM 69.4990 18.4470 33° Northeast 279 321 4,600 -1,592 Descending FlightAware ADS-B
Thu 07:22:47 AM 69.5190 18.4940 39° Northeast 281 323 4,100 -1,467 Descending FlightAware ADS-B
Thu 07:23:13 AM 69.5360 18.5720 58° Northeast 277 319 3,500 -1,179 Descending FlightAware ADS-B
Thu 07:23:43 AM 69.5490 18.6720 70° East 263 303 3,000 -517 Descending FlightAware ADS-B
Thu 07:24:11 AM 69.5580 18.7510 72° East 237 273 3,000 -367 Level FlightAware ADS-B
Thu 07:24:32 AM 69.5650 18.7910 63° Northeast 220 253 2,700 -833 Descending FlightAware ADS-B
Thu 07:24:47 AM 69.5810 18.8390 46° Northeast 185 213 2,500 -857 Descending FlightAware ADS-B
Thu 07:25:07 AM 69.5950 18.8580 25° Northeast 165 190 2,200 -1,105 Descending FlightAware ADS-B
Thu 07:26:03 AM 69.6320 18.8840 14° North 138 159 1,100 -1,026 Descending FlightAware ADS-B
Thu 07:26:23 AM 69.6440 18.8930 15° North 135 155 900 -857 Descending FlightAware ADS-B
Thu 07:26:52 AM 69.6620 18.9050 13° North 136 157 400 -960 Descending FlightAware ADS-B
Thu 07:27:13 AM 69.6740 18.9130 13° North 129 148 100 -265 Descending FlightAware ADS-B
Thu 07:28:00 AM 69.6870 19.6270 87° East 112 129 100  Level FlightAware ADS-B
Thu 07:30:00 AM 69.6838 18.9848 269° West  Level Estimated
Thu 07:30:21 AM 69.6800 18.9100 269° West 112 129  Level FlightAware ADS-B
Thu 07:32:56 AM 69.6800 18.9090 43° Northeast 112 129  Level FlightAware ADS-B
Thu 07:33:00 AM 69.6833 18.9189 43° Northeast  Level Estimated
Thu 07:35:00 AM 69.6833 18.9189 46° Northeast  Level Estimated
Thu 07:35:08 AM 69.6800 18.9090 46° Northeast 112 129  Level FlightAware ADS-B
Thu 07:37:00 AM 69.6833 18.9189 46° Northeast  Level Estimated
Thu 07:37:38 AM 69.6800 18.9090 46° Northeast 112 129  Level FlightAware ADS-B
Thu 07:40:00 AM 69.6833 18.9189 46° Northeast  Level Estimated
Thu 07:40:36 AM 69.6800 18.9090 46° Northeast 112 129  Level FlightAware ADS-B

Login

Don't have an account? Register now (free) for customized features, flight alerts, and more!